Terminal Aerodrome Forecast
Issued by NWS Jackson, KY

Home | Current Version | Previous Version | Text Only | Print | Product List | Glossary On
Versions: 1 2 3 4 5 6 7 8 9 10 11 12 13 14 15
000
FTUS43 KJKL 241100
TAFJKL
TAF
KJKL 241133Z 2412/2512 16006KT P6SM OVC100
     FM241900 22010G22KT P6SM -SHRA BKN035
     FM242100 24016G28KT P6SM -SHRA BKN028
     FM250000 26010G18KT P6SM OVC022
     FM250800 26010G18KT 5SM -RA BR OVC018=

USA.gov is the U.S. government's official web portal to all federal, state and local government web resources and services.